createdAt,value
2019-03-25T00:00:44.963Z,9.80
2019-03-25T00:03:16.830Z,9.60
2019-03-25T00:05:47.229Z,9.70
2019-03-25T00:08:17.586Z,9.80
2019-03-25T00:10:47.979Z,10.00
2019-03-25T00:13:18.346Z,10.30
2019-03-25T00:15:48.700Z,10.90
2019-03-25T00:18:19.127Z,10.90
2019-03-25T00:20:49.471Z,10.40
2019-03-25T00:23:20.987Z,10.10
2019-03-25T00:25:51.335Z,10.30
2019-03-25T00:28:21.843Z,10.50
2019-03-25T00:30:52.198Z,10.20
2019-03-25T00:33:22.621Z,10.00
2019-03-25T00:35:52.963Z,9.70
2019-03-25T00:38:23.377Z,9.50
2019-03-25T00:40:53.731Z,9.30
2019-03-25T00:43:24.142Z,9.00
2019-03-25T00:45:54.500Z,8.90
2019-03-25T00:48:24.914Z,8.90
2019-03-25T00:50:55.296Z,9.20
2019-03-25T00:53:25.728Z,9.50
2019-03-25T00:55:56.152Z,9.80
2019-03-25T00:58:26.567Z,9.70
2019-03-25T01:00:56.973Z,9.70
2019-03-25T01:03:27.467Z,9.50
2019-03-25T01:05:57.887Z,9.20
2019-03-25T01:08:28.301Z,9.00
2019-03-25T01:10:58.700Z,8.70
2019-03-25T01:13:30.216Z,8.80
2019-03-25T01:16:00.615Z,8.80
2019-03-25T01:18:32.303Z,8.80
2019-03-25T01:21:02.724Z,8.80
2019-03-25T01:23:34.327Z,8.70
2019-03-25T01:26:05.845Z,8.70
2019-03-25T01:28:36.258Z,8.70
2019-03-25T01:31:16.880Z,8.50
2019-03-25T01:33:47.283Z,8.70
2019-03-25T01:36:17.681Z,9.00
2019-03-25T01:38:48.068Z,9.20
2019-03-25T01:41:18.491Z,8.90
2019-03-25T01:43:48.888Z,9.00
2019-03-25T01:46:19.329Z,8.90
2019-03-25T01:48:49.712Z,8.70
2019-03-25T01:51:20.115Z,8.50
2019-03-25T01:53:50.515Z,8.40
2019-03-25T01:56:21.033Z,8.40
2019-03-25T01:58:51.431Z,8.20
2019-03-25T02:01:21.835Z,8.10
2019-03-25T02:03:52.248Z,8.00
2019-03-25T02:06:22.646Z,8.00
2019-03-25T02:08:53.254Z,7.90
2019-03-25T02:11:23.681Z,7.70
2019-03-25T02:13:54.082Z,7.70
2019-03-25T02:16:24.487Z,7.70
2019-03-25T02:18:54.878Z,7.80
2019-03-25T02:21:25.301Z,7.80
2019-03-25T02:23:55.699Z,7.60
2019-03-25T02:26:26.342Z,7.50
2019-03-25T02:28:56.743Z,7.60
2019-03-25T02:31:27.157Z,8.10
2019-03-25T02:33:57.498Z,8.30
2019-03-25T02:36:27.903Z,8.00
2019-03-25T02:38:58.242Z,7.80
2019-03-25T02:41:28.646Z,7.70
2019-03-25T02:43:59.007Z,7.50
2019-03-25T02:46:30.707Z,7.40
2019-03-25T02:49:01.055Z,7.70
2019-03-25T02:51:31.456Z,8.10
2019-03-25T02:54:01.870Z,8.10
2019-03-25T02:56:32.273Z,7.70
2019-03-25T02:59:02.687Z,7.60
2019-03-25T03:01:33.101Z,7.70
2019-03-25T03:04:03.514Z,7.70
2019-03-25T03:06:33.925Z,7.60
2019-03-25T03:09:06.597Z,7.40
2019-03-25T03:11:37.120Z,7.40
2019-03-25T03:14:07.507Z,7.30
2019-03-25T03:16:37.909Z,7.20
2019-03-25T03:19:08.351Z,7.10
2019-03-25T03:21:38.778Z,7.10
2019-03-25T03:24:09.184Z,7.00
2019-03-25T03:26:39.554Z,7.00
2019-03-25T03:29:09.969Z,6.90
2019-03-25T03:31:40.346Z,6.90
2019-03-25T03:34:10.808Z,6.90
2019-03-25T03:36:41.152Z,6.80
2019-03-25T03:39:11.575Z,6.90
2019-03-25T03:41:41.930Z,7.00
2019-03-25T03:44:12.341Z,7.10
2019-03-25T03:46:43.881Z,7.10
2019-03-25T03:49:14.277Z,7.00
2019-03-25T03:51:44.829Z,7.00
2019-03-25T03:54:16.027Z,7.00
2019-03-25T03:56:46.605Z,6.90
2019-03-25T03:59:17.734Z,6.90
2019-03-25T04:01:48.068Z,6.90
2019-03-25T04:04:18.471Z,7.00
2019-03-25T04:06:48.831Z,7.00
2019-03-25T04:09:19.261Z,7.10
2019-03-25T04:11:49.609Z,6.90
2019-03-25T04:14:20.027Z,6.80
2019-03-25T04:16:50.381Z,6.70
2019-03-25T04:19:20.805Z,6.70
2019-03-25T04:21:51.151Z,6.70
2019-03-25T04:24:21.643Z,6.70
2019-03-25T04:26:51.989Z,6.90
2019-03-25T04:29:22.402Z,6.80
2019-03-25T04:31:52.742Z,6.80
2019-03-25T04:34:23.338Z,6.80
2019-03-25T04:36:53.696Z,6.70
2019-03-25T04:39:24.113Z,6.60
2019-03-25T04:41:54.453Z,6.70
2019-03-25T04:44:25.156Z,7.10
2019-03-25T04:46:55.493Z,7.80
2019-03-25T04:49:25.903Z,8.40
2019-03-25T04:51:56.235Z,8.30
2019-03-25T04:54:26.757Z,8.00
2019-03-25T04:56:57.113Z,7.90
2019-03-25T04:59:27.520Z,7.60
2019-03-25T05:01:57.866Z,7.60
2019-03-25T05:04:28.277Z,7.40
2019-03-25T05:06:58.629Z,7.20
2019-03-25T05:09:29.031Z,7.10
2019-03-25T05:11:59.612Z,6.90
2019-03-25T05:14:30.018Z,6.80
2019-03-25T05:17:00.354Z,6.70
2019-03-25T05:19:30.777Z,6.70
2019-03-25T05:22:01.125Z,6.70
2019-03-25T05:24:31.537Z,6.70
2019-03-25T05:27:01.878Z,6.90
2019-03-25T05:29:32.540Z,7.00
2019-03-25T05:32:02.879Z,6.90
2019-03-25T05:34:33.330Z,7.00
2019-03-25T05:37:03.747Z,7.10
2019-03-25T05:39:34.167Z,7.60
2019-03-25T05:42:05.246Z,8.00
2019-03-25T05:44:35.666Z,8.40
2019-03-25T05:47:06.166Z,8.70
2019-03-25T05:49:36.587Z,9.00
2019-03-25T05:52:06.942Z,8.90
2019-03-25T05:54:37.511Z,8.90
2019-03-25T05:57:07.929Z,8.70
2019-03-25T05:59:38.337Z,8.60
2019-03-25T06:02:08.674Z,8.50
2019-03-25T06:04:39.091Z,8.50
2019-03-25T06:07:09.439Z,8.80
2019-03-25T06:09:39.847Z,8.90
2019-03-25T06:12:10.188Z,8.90
2019-03-25T06:14:40.601Z,9.10
2019-03-25T06:17:10.946Z,9.10
2019-03-25T06:19:41.361Z,9.20
2019-03-25T06:22:11.713Z,9.40
2019-03-25T06:24:42.126Z,9.70
2019-03-25T06:27:14.236Z,10.50
2019-03-25T06:29:44.509Z,10.70
2019-03-25T06:32:14.872Z,11.20
2019-03-25T06:34:45.296Z,11.70
2019-03-25T06:37:15.720Z,12.60
2019-03-25T06:39:46.126Z,13.00
2019-03-25T06:42:16.537Z,13.20
2019-03-25T06:44:46.962Z,13.70
2019-03-25T06:47:17.312Z,14.50
2019-03-25T06:49:47.756Z,15.40
2019-03-25T06:52:18.111Z,16.10
2019-03-25T06:54:48.532Z,16.80
2019-03-25T06:57:25.595Z,17.10
2019-03-25T06:59:50.947Z,17.10
2019-03-25T07:02:21.381Z,16.70
2019-03-25T07:04:51.805Z,16.40
2019-03-25T07:07:22.177Z,16.60
2019-03-25T07:09:52.580Z,17.10
2019-03-25T07:12:23.442Z,17.30
2019-03-25T07:14:53.962Z,17.40
2019-03-25T07:17:24.548Z,17.60
2019-03-25T07:19:54.960Z,17.70
2019-03-25T07:22:25.311Z,18.00
2019-03-25T07:24:55.724Z,18.20
2019-03-25T07:27:36.033Z,18.60
2019-03-25T07:29:58.135Z,18.60
2019-03-25T07:32:28.486Z,18.50
2019-03-25T07:34:58.895Z,18.10
2019-03-25T07:37:29.262Z,17.70
2019-03-25T07:39:59.693Z,17.50
2019-03-25T07:42:30.109Z,17.00
2019-03-25T07:45:00.523Z,16.70
2019-03-25T07:47:30.870Z,16.50
2019-03-25T07:50:01.289Z,16.40
2019-03-25T07:52:32.744Z,16.40
2019-03-25T07:55:03.356Z,16.20
2019-03-25T07:57:33.817Z,16.20
2019-03-25T08:00:13.378Z,16.10
2019-03-25T08:02:39.382Z,16.00
2019-03-25T08:05:10.175Z,16.10
2019-03-25T08:07:40.633Z,16.30
2019-03-25T08:10:11.945Z,16.20
2019-03-25T08:12:42.304Z,16.20
2019-03-25T08:15:12.727Z,16.20
2019-03-25T08:17:43.070Z,16.40
2019-03-25T08:20:15.372Z,16.40
2019-03-25T08:22:44.874Z,16.50
2019-03-25T08:25:15.313Z,16.60
2019-03-25T08:27:45.658Z,16.60
2019-03-25T08:30:16.271Z,16.60
2019-03-25T08:32:46.625Z,16.70
2019-03-25T08:35:17.037Z,16.80
2019-03-25T08:37:47.383Z,16.80
2019-03-25T08:40:18.015Z,16.80
2019-03-25T08:42:48.508Z,16.90
2019-03-25T08:45:19.419Z,16.90
2019-03-25T08:47:49.781Z,16.90
2019-03-25T08:50:20.302Z,16.80
2019-03-25T08:52:50.816Z,16.90
2019-03-25T08:55:23.728Z,16.90
2019-03-25T08:57:54.090Z,16.90
2019-03-25T09:00:24.513Z,16.90
2019-03-25T09:02:54.858Z,17.10
2019-03-25T09:05:25.382Z,17.20
2019-03-25T09:07:55.841Z,17.30
2019-03-25T09:10:26.255Z,17.50
2019-03-25T09:12:56.605Z,17.40
2019-03-25T09:15:27.119Z,17.40
2019-03-25T09:17:57.593Z,17.40
2019-03-25T09:20:28.007Z,17.40
2019-03-25T09:22:58.361Z,17.50
2019-03-25T09:25:29.778Z,17.60
2019-03-25T09:28:00.242Z,17.70
2019-03-25T09:30:53.162Z,17.70
2019-03-25T09:33:24.671Z,17.70
2019-03-25T09:35:55.137Z,17.60
2019-03-25T09:38:25.548Z,17.50
2019-03-25T09:40:55.973Z,17.50
2019-03-25T09:43:26.319Z,17.60
2019-03-25T09:45:56.728Z,17.60
2019-03-25T09:48:27.080Z,17.60
2019-03-25T09:50:58.699Z,17.80
2019-03-25T09:53:29.049Z,17.70
2019-03-25T09:55:59.463Z,17.90
2019-03-25T09:58:36.214Z,17.80
2019-03-25T10:01:01.953Z,17.70
2019-03-25T10:03:32.317Z,17.80
2019-03-25T10:06:02.884Z,17.90
2019-03-25T10:08:33.346Z,18.00
2019-03-25T10:11:03.868Z,18.00
2019-03-25T10:13:34.323Z,18.00
2019-03-25T10:16:04.832Z,18.10
2019-03-25T10:18:35.215Z,18.30
2019-03-25T10:21:05.652Z,18.10
2019-03-25T10:23:36.098Z,18.10
2019-03-25T10:26:06.522Z,18.20
2019-03-25T10:28:47.814Z,18.40
2019-03-25T10:31:11.254Z,18.60
2019-03-25T10:33:41.760Z,18.40
2019-03-25T10:36:12.180Z,18.30
2019-03-25T10:38:42.542Z,18.10
2019-03-25T10:41:13.173Z,18.20
2019-03-25T10:43:43.536Z,18.30
2019-03-25T10:46:13.957Z,18.40
2019-03-25T10:48:44.306Z,18.50
2019-03-25T10:51:14.712Z,18.40
2019-03-25T10:53:45.101Z,18.30
2019-03-25T10:56:15.739Z,18.40
2019-03-25T10:58:46.100Z,18.60
2019-03-25T11:01:16.618Z,18.80
2019-03-25T11:03:47.070Z,18.90
2019-03-25T11:06:17.487Z,19.00
2019-03-25T11:08:47.846Z,18.90
2019-03-25T11:11:18.259Z,18.70
2019-03-25T11:13:49.810Z,18.70
2019-03-25T11:16:21.337Z,18.70
2019-03-25T11:18:51.699Z,18.90
2019-03-25T11:21:23.515Z,19.00
2019-03-25T11:23:54.209Z,19.10
2019-03-25T11:26:24.622Z,19.00
2019-03-25T11:28:54.972Z,18.90
2019-03-25T11:31:25.389Z,18.90
2019-03-25T11:33:55.748Z,18.90
2019-03-25T11:36:26.165Z,18.80
2019-03-25T11:38:56.525Z,19.00
2019-03-25T11:41:27.089Z,19.10
2019-03-25T11:43:57.505Z,19.20
2019-03-25T11:46:27.923Z,19.30
2019-03-25T11:48:58.336Z,19.20
2019-03-25T11:51:28.738Z,19.20
2019-03-25T11:53:59.138Z,19.30
2019-03-25T11:56:29.555Z,19.40
2019-03-25T11:58:59.964Z,19.40
2019-03-25T12:01:30.377Z,19.50
2019-03-25T12:04:00.778Z,19.60
2019-03-25T12:06:31.197Z,19.70
2019-03-25T12:09:01.604Z,19.70
2019-03-25T12:11:32.610Z,19.80
2019-03-25T12:14:03.028Z,19.80
2019-03-25T12:16:33.556Z,19.60
2019-03-25T12:19:04.691Z,19.40
2019-03-25T12:21:35.016Z,19.50
2019-03-25T12:24:08.390Z,19.70
2019-03-25T12:26:39.018Z,19.70
2019-03-25T12:29:09.367Z,19.70
2019-03-25T12:31:39.792Z,19.80
2019-03-25T12:34:10.307Z,19.90
2019-03-25T12:36:40.766Z,20.10
2019-03-25T12:39:11.310Z,20.20
2019-03-25T12:41:41.728Z,20.30
2019-03-25T12:44:12.131Z,20.60
2019-03-25T12:46:42.478Z,20.70
2019-03-25T12:49:12.901Z,20.50
2019-03-25T12:51:43.260Z,20.40
2019-03-25T12:54:13.686Z,20.30
2019-03-25T12:56:44.050Z,20.30
2019-03-25T12:59:14.458Z,20.40
2019-03-25T13:01:52.888Z,20.60
2019-03-25T13:04:17.019Z,20.60
2019-03-25T13:06:47.442Z,20.70
2019-03-25T13:09:17.837Z,20.90
2019-03-25T13:11:48.234Z,20.90
2019-03-25T13:14:19.845Z,20.80
2019-03-25T13:16:50.248Z,20.80
2019-03-25T13:19:20.684Z,20.90
2019-03-25T13:21:51.075Z,20.90
2019-03-25T13:24:21.586Z,21.00
2019-03-25T13:26:52.007Z,21.10
2019-03-25T13:29:22.415Z,20.90
2019-03-25T13:31:52.826Z,21.00
2019-03-25T13:34:23.232Z,21.10
2019-03-25T13:36:53.644Z,20.90
2019-03-25T13:39:24.012Z,21.10
2019-03-25T13:41:54.415Z,21.00
2019-03-25T13:44:24.765Z,20.90
2019-03-25T13:46:55.217Z,20.90
2019-03-25T13:49:25.614Z,20.80
2019-03-25T13:51:56.062Z,20.90
2019-03-25T13:54:26.479Z,21.10
2019-03-25T13:56:56.939Z,21.20
2019-03-25T13:59:27.593Z,21.30
2019-03-25T14:01:58.322Z,21.40
2019-03-25T14:04:28.759Z,21.30
2019-03-25T14:06:59.157Z,21.20
2019-03-25T14:09:29.617Z,21.10
2019-03-25T14:12:00.064Z,21.00
2019-03-25T14:14:30.502Z,21.00
2019-03-25T14:17:00.923Z,21.10
2019-03-25T14:19:31.339Z,21.00
2019-03-25T14:22:01.907Z,21.10
2019-03-25T14:24:33.446Z,21.20
2019-03-25T14:27:04.457Z,21.30
2019-03-25T14:29:35.059Z,21.30
2019-03-25T14:32:05.501Z,21.20
2019-03-25T14:34:44.435Z,21.10
2019-03-25T14:37:08.066Z,21.10
2019-03-25T14:39:38.414Z,21.10
2019-03-25T14:42:08.873Z,21.10
2019-03-25T14:44:39.351Z,21.30
2019-03-25T14:47:09.816Z,21.40
2019-03-25T14:49:40.212Z,21.20
2019-03-25T14:52:10.755Z,21.20
2019-03-25T14:54:41.139Z,21.20
2019-03-25T14:57:11.599Z,21.30
2019-03-25T14:59:42.006Z,21.30
2019-03-25T15:02:12.466Z,21.40
2019-03-25T15:04:42.923Z,21.40
2019-03-25T15:07:13.369Z,21.40
2019-03-25T15:09:43.822Z,21.40
2019-03-25T15:12:14.230Z,21.30
2019-03-25T15:14:44.747Z,21.40
2019-03-25T15:17:15.254Z,21.40
2019-03-25T15:25:31.234Z,21.30
2019-03-25T15:33:47.326Z,21.20
2019-03-25T15:36:17.743Z,21.20
2019-03-25T15:38:48.147Z,21.30
2019-03-25T15:41:18.507Z,21.30
2019-03-25T15:43:48.916Z,21.40
2019-03-25T15:46:19.305Z,21.40
2019-03-25T15:48:49.767Z,21.30
2019-03-25T15:51:21.135Z,21.40
2019-03-25T15:53:51.616Z,21.40
2019-03-25T15:56:22.056Z,21.40
2019-03-25T15:58:52.462Z,21.30
2019-03-25T16:01:22.873Z,21.30
2019-03-25T16:03:53.305Z,21.20
2019-03-25T16:06:23.702Z,21.20
2019-03-25T16:08:54.117Z,21.20
2019-03-25T16:11:24.516Z,21.30
2019-03-25T16:13:54.941Z,21.30
2019-03-25T16:16:25.355Z,21.30
2019-03-25T16:18:55.805Z,21.30
2019-03-25T16:21:26.251Z,21.30
2019-03-25T16:23:56.637Z,21.20
2019-03-25T16:26:27.103Z,21.10
2019-03-25T16:28:57.533Z,21.00
2019-03-25T16:31:27.915Z,20.90
2019-03-25T16:33:58.377Z,20.80
2019-03-25T16:36:28.769Z,20.70
2019-03-25T16:38:59.184Z,20.60
2019-03-25T16:41:29.597Z,20.50
2019-03-25T16:44:00.042Z,20.40
2019-03-25T16:46:30.482Z,20.20
2019-03-25T16:49:00.955Z,20.20
2019-03-25T16:51:31.450Z,20.10
2019-03-25T16:54:01.860Z,19.90
2019-03-25T16:56:32.328Z,19.90
2019-03-25T16:59:02.821Z,19.60
2019-03-25T17:01:33.231Z,19.50
2019-03-25T17:04:03.648Z,19.50
2019-03-25T17:06:34.042Z,19.40
2019-03-25T17:09:05.968Z,19.40
2019-03-25T17:11:36.469Z,19.30
2019-03-25T17:14:06.916Z,19.30
2019-03-25T17:16:37.316Z,19.20
2019-03-25T17:19:07.765Z,19.20
2019-03-25T17:21:38.185Z,19.30
2019-03-25T17:24:08.600Z,19.40
2019-03-25T17:26:42.541Z,19.50
2019-03-25T17:29:11.069Z,19.60
2019-03-25T17:34:37.799Z,19.80
2019-03-25T17:37:08.596Z,19.90
2019-03-25T17:39:40.117Z,19.80
2019-03-25T17:42:10.534Z,19.60
2019-03-25T17:44:40.976Z,19.60
2019-03-25T17:47:11.383Z,19.50
2019-03-25T17:49:41.824Z,19.50
2019-03-25T17:52:12.180Z,19.50
2019-03-25T17:54:42.613Z,19.50
2019-03-25T17:57:12.963Z,19.50
2019-03-25T17:59:43.393Z,19.60
2019-03-25T18:02:18.324Z,19.50
2019-03-25T18:04:48.754Z,19.60
2019-03-25T18:07:19.601Z,19.60
2019-03-25T18:09:50.067Z,19.50
2019-03-25T18:12:20.436Z,19.40
2019-03-25T18:14:50.870Z,19.40
2019-03-25T18:17:21.359Z,19.30
2019-03-25T18:19:51.780Z,19.20
2019-03-25T18:22:22.143Z,19.10
2019-03-25T18:24:52.635Z,19.10
2019-03-25T18:27:23.057Z,19.10
2019-03-25T18:29:53.537Z,19.00
2019-03-25T18:32:25.817Z,18.90
2019-03-25T18:35:09.958Z,18.80
2019-03-25T18:37:47.038Z,18.80
2019-03-25T18:40:31.748Z,18.80
2019-03-25T18:43:16.673Z,18.80
2019-03-25T18:45:52.001Z,18.80
2019-03-25T18:48:22.938Z,18.70
2019-03-25T18:50:54.640Z,18.70
2019-03-25T18:53:25.184Z,18.60
2019-03-25T18:55:56.029Z,18.60
2019-03-25T18:58:26.717Z,18.60
2019-03-25T19:00:57.167Z,18.60
2019-03-25T19:03:48.819Z,18.50
2019-03-25T19:06:19.476Z,18.50
2019-03-25T19:08:51.743Z,18.50
2019-03-25T19:11:31.128Z,18.50
2019-03-25T19:13:56.461Z,18.50
2019-03-25T19:16:27.180Z,18.50
2019-03-25T19:18:57.758Z,18.50
2019-03-25T19:21:28.353Z,18.50
2019-03-25T19:24:00.729Z,18.50
2019-03-25T19:26:31.469Z,18.40
2019-03-25T19:29:02.405Z,18.30
2019-03-25T19:31:32.840Z,18.10
2019-03-25T19:34:03.636Z,18.00
2019-03-25T19:36:34.343Z,17.80
2019-03-25T19:39:07.363Z,17.70
2019-03-25T19:41:38.840Z,17.50
2019-03-25T19:44:10.165Z,17.40
2019-03-25T19:46:41.279Z,17.30
2019-03-25T19:49:11.892Z,17.30
2019-03-25T19:51:42.372Z,17.20
2019-03-25T19:54:12.692Z,17.10
2019-03-25T19:56:43.104Z,17.10
2019-03-25T19:59:13.771Z,17.10
2019-03-25T20:01:46.507Z,17.10
2019-03-25T20:04:16.943Z,17.00
2019-03-25T20:06:47.403Z,17.00
2019-03-25T20:09:17.814Z,17.00
2019-03-25T20:11:48.232Z,16.90
2019-03-25T20:14:18.565Z,16.80
2019-03-25T20:16:48.967Z,16.70
2019-03-25T20:19:19.420Z,16.70
2019-03-25T20:21:49.838Z,16.50
2019-03-25T20:24:20.202Z,16.50
2019-03-25T20:26:50.633Z,16.50
2019-03-25T20:29:20.983Z,16.50
2019-03-25T20:31:51.396Z,16.50
2019-03-25T20:34:21.773Z,16.50
2019-03-25T20:36:52.373Z,16.50
2019-03-25T20:39:22.799Z,16.50
2019-03-25T20:41:53.249Z,16.40
2019-03-25T20:44:23.733Z,16.40
2019-03-25T20:46:55.440Z,16.40
2019-03-25T20:49:25.859Z,16.40
2019-03-25T20:51:56.263Z,16.40
2019-03-25T20:54:26.678Z,16.40
2019-03-25T20:56:57.090Z,16.40
2019-03-25T20:59:27.500Z,16.40
2019-03-25T21:01:57.907Z,16.40
2019-03-25T21:04:28.326Z,16.40
2019-03-25T21:06:58.758Z,16.40
2019-03-25T21:09:29.207Z,16.40
2019-03-25T21:11:59.610Z,16.40
2019-03-25T21:14:30.099Z,16.40
2019-03-25T21:17:00.536Z,16.40
2019-03-25T21:19:30.963Z,16.40
2019-03-25T21:22:01.536Z,16.40
2019-03-25T21:24:32.059Z,16.40
2019-03-25T21:27:02.485Z,16.40
2019-03-25T21:29:32.915Z,16.30
2019-03-25T21:32:03.412Z,16.30
2019-03-25T21:34:33.766Z,16.30
2019-03-25T21:37:05.733Z,16.20
2019-03-25T21:39:37.767Z,16.20
2019-03-25T21:42:08.202Z,16.10
2019-03-25T21:44:38.548Z,15.90
2019-03-25T21:47:09.013Z,15.80
2019-03-25T21:49:39.460Z,15.70
2019-03-25T21:52:09.861Z,15.60
2019-03-25T21:54:40.305Z,15.40
2019-03-25T21:57:10.736Z,15.20
2019-03-25T21:59:41.220Z,15.20
2019-03-25T22:02:11.686Z,15.00
2019-03-25T22:04:42.114Z,14.60
2019-03-25T22:07:12.479Z,14.40
2019-03-25T22:09:43.146Z,14.40
2019-03-25T22:12:13.502Z,14.40
2019-03-25T22:14:45.228Z,14.20
2019-03-25T22:17:15.599Z,13.90
2019-03-25T22:19:46.020Z,13.80
2019-03-25T22:22:16.376Z,13.80
2019-03-25T22:24:46.822Z,13.70
2019-03-25T22:27:17.160Z,13.80
2019-03-25T22:29:47.590Z,13.90
2019-03-25T22:32:17.935Z,14.00
2019-03-25T22:34:48.352Z,13.90
2019-03-25T22:37:18.724Z,14.00
2019-03-25T22:39:49.147Z,13.90
2019-03-25T22:42:19.542Z,13.80
2019-03-25T22:44:49.946Z,14.00
2019-03-25T22:47:20.561Z,13.60
2019-03-25T22:49:50.951Z,13.30
2019-03-25T22:52:21.378Z,13.20
2019-03-25T22:54:52.031Z,13.20
2019-03-25T22:57:22.435Z,12.90
2019-03-25T22:59:53.126Z,12.90
2019-03-25T23:02:23.531Z,12.90
2019-03-25T23:04:53.930Z,12.80
2019-03-25T23:07:24.388Z,12.70
2019-03-25T23:09:54.791Z,12.70
2019-03-25T23:12:25.180Z,12.70
2019-03-25T23:14:55.583Z,12.70
2019-03-25T23:17:25.985Z,12.50
2019-03-25T23:19:56.406Z,12.30
2019-03-25T23:22:26.748Z,12.20
2019-03-25T23:24:57.378Z,12.00
2019-03-25T23:27:27.884Z,11.70
2019-03-25T23:29:58.318Z,11.60
2019-03-25T23:32:28.694Z,11.60
2019-03-25T23:34:59.087Z,11.40
2019-03-25T23:37:29.439Z,11.20
2019-03-25T23:39:59.835Z,11.10
2019-03-25T23:42:30.351Z,11.00
2019-03-25T23:45:00.770Z,10.90
2019-03-25T23:47:31.176Z,11.10
2019-03-25T23:50:01.603Z,10.90
2019-03-25T23:52:32.011Z,11.00
2019-03-25T23:55:02.426Z,10.90
2019-03-25T23:57:32.847Z,10.60
